Miles City, MT

5:28 PM MST on February 12, 2016 (GMT -0700)
Wiley | | Change Station
CLOSE
Current Station
Airport
Location: Miles City,
Elevation: 2628 ft
Nearby Weather Stations

Elev 2628 ft 46.43 °N, 105.88 °W | Updated 35 minutes ago

Overcast
Overcast
35 °F
Feels Like 28 °F
N
9
Wind Variable Wind from East

Today
High -- | Low -- °F
--% Chance of Precip.
Yesterday
High -- | Low -- °F
Precip. -- in
Pressure 30.30 in
Visibility 10.0 miles
Clouds Few 5500 ft
Overcast 7500 ft
Windchill 28 °F
Dew Point 26 °F
Humidity 70%
Rainfall 0.00 in
Snow Depth Not available.
7:12 AM 5:23 PM
Waxing Crescent, 25% visible
METAR KMLS 122353Z AUTO 08008KT 10SM FEW055 OVC075 02/M03 A3023 RMK AO2 SLP261 60000 T00171033 10017 21017 58020
Pressure 30.30 in
Visibility 10.0 miles
Clouds Few 5500 ft
Overcast 7500 ft
Windchill 28 °F
Dew Point 26 °F
Humidity 70%
Rainfall 0.00 in
Snow Depth Not available.
7:12 AM 5:23 PM
Waxing Crescent, 25% visible
METAR KMLS 122353Z AUTO 08008KT 10SM FEW055 OVC075 02/M03 A3023 RMK AO2 SLP261 60000 T00171033 10017 21017 58020

10-Day Weather Forecast

Almanac

Astronomy

Feb. 12, 2016 Rise Set
Actual Time
Civil Twilight
Nautical Twilight
Astronomical Twilight
Moon
Length of Visible Light
Length of Day
Tomorrow will be .
, % of the Moon is Illuminated

Today's Extremes

State Highs State Lows

Community

WunderPhotos

Upload Photos

1,892,439 photos uploaded!

WunderBlog® & News

Nearby

Air Quality

  Air Quality AQ Index Pollutant
Not available.

Snow Depth

Station Depth Elevation

Earthquake Activity

City Distance Mag. Time & Date
Minimum magnitude displayed is 2.5.

Coastal Water Temperatures

Place Temperature

Stations

Nearby Weather Stations

Station Location Temp. Windchill Dew Point Humidity Wind Precip. Elev Updated Type
                   

Watches & Warnings

There are currently no watches in effect.